Terminal Aerodrome Forecast
Issued by NWS Pocatello, ID

Home | Current Version | Previous Version | Text Only | Print | Product List | Glossary On
Versions: 1 2 3 4 5 6 7 8 9 10 11 12 13 14 15 16 17 18 19 20 21 22 23 24 25 26 27 28
000
FTUS45 KPIH 022305 AAB
TAFPIH
TAF AMD
KPIH 022305Z 0223/0318 24007KT P6SM SCT008 BKN015 OVC025
     FM030300 21005KT P6SM VCFG SCT008 OVC015
     FM030800 18004KT P6SM VCFG SCT004 OVC008
     FM031200 18010KT P6SM SCT008 OVC025=

USA.gov is the U.S. government's official web portal to all federal, state and local government web resources and services.